Albuquerque, NM (87101)

12:29 PM MDT on August 29, 2016 (GMT -0600)
UNM Area West | | Change Station

Elev 5133 ft 35.09 °N, 106.63 °W | Updated 6 minutes ago

Overcast
Overcast
81.0 °F
Feels Like 80 °F
N
5.0
Wind Variable Wind from SSE
Gusts 6.0 mph

Today
High -- | Low -- °F
--% Chance of Precip.
Yesterday
High -- | Low -- °F
Precip. -- in
Pressure 30.28 in
Visibility 10.0 miles
Clouds Scattered Clouds 6000 ft
Scattered Clouds 8000 ft
Scattered Clouds 12000 ft
Heat Index 80 °F
Dew Point 49 °F
Humidity 33%
Rainfall 0.00 in
Snow Depth Not available.
6:37 AM 7:36 PM
Waning Crescent, 7% visible
SPECI KABQ 291818Z COR 08009G16KT 10SM -RA SCT060CB SCT080 SCT120 25/09 A3028 RMK AO2 RAB18 CB SE-OHD STNRY CB DSNT N AND NE AND NW P0000 T02500094
Pressure 30.28 in
Visibility 10.0 miles
Clouds Scattered Clouds 6000 ft
Scattered Clouds 8000 ft
Scattered Clouds 12000 ft
Heat Index 80 °F
Dew Point 49 °F
Humidity 33%
Rainfall 0.00 in
Snow Depth Not available.
6:37 AM 7:36 PM
Waning Crescent, 7% visible
SPECI KABQ 291818Z COR 08009G16KT 10SM -RA SCT060CB SCT080 SCT120 25/09 A3028 RMK AO2 RAB18 CB SE-OHD STNRY CB DSNT N AND NE AND NW P0000 T02500094

10-Day Weather Forecast

Almanac

Astronomy

Aug. 29, 2016 Rise Set
Actual Time
Civil Twilight
Nautical Twilight
Astronomical Twilight
Moon
Length of Visible Light
Length of Day
Tomorrow will be .
, % of the Moon is Illuminated

Today's Extremes

State Highs State Lows

Community

WunderPhotos

Upload Photos

1,935,684 photos uploaded!

WunderBlog® & News

Nearby

Air Quality

  Air Quality AQ Index Pollutant
Not available.

Snow Depth

Station Depth Elevation

Earthquake Activity

City Distance Mag. Time & Date
Minimum magnitude displayed is 2.5.

Coastal Water Temperatures

Place Temperature

Stations

Nearby Weather Stations

Station Location Temp. Windchill Dew Point Humidity Wind Precip. Elev Updated Type
                   

Watches & Warnings

There are currently no watches in effect.